createdAt,value
2019-01-22T00:01:20.990Z,76.69
2019-01-22T00:03:52.457Z,77.51
2019-01-22T00:06:24.054Z,77.03
2019-01-22T00:08:55.415Z,76.55
2019-01-22T00:11:26.929Z,76.12
2019-01-22T00:13:58.498Z,76.38
2019-01-22T00:16:29.898Z,76.64
2019-01-22T00:19:01.277Z,77.20
2019-01-22T00:21:32.736Z,78.46
2019-01-22T00:24:04.467Z,79.31
2019-01-22T00:26:35.942Z,78.93
2019-01-22T00:29:07.719Z,79.52
2019-01-22T00:31:39.213Z,79.66
2019-01-22T00:34:10.511Z,79.79
2019-01-22T00:36:42.027Z,79.95
2019-01-22T00:39:13.447Z,80.05
2019-01-22T00:41:44.916Z,79.97
2019-01-22T00:44:16.369Z,80.05
2019-01-22T00:46:47.761Z,80.36
2019-01-22T00:49:19.061Z,79.72
2019-01-22T00:51:51.167Z,79.17
2019-01-22T00:54:22.627Z,78.94
2019-01-22T00:56:53.959Z,78.91
2019-01-22T00:59:25.497Z,80.27
2019-01-22T01:01:57.049Z,79.47
2019-01-22T01:04:28.429Z,78.29
2019-01-22T01:07:00.020Z,77.96
2019-01-22T01:09:31.482Z,76.97
2019-01-22T01:12:02.876Z,77.10
2019-01-22T01:14:34.260Z,77.53
2019-01-22T01:17:05.901Z,77.18
2019-01-22T01:19:37.268Z,77.87
2019-01-22T01:22:08.784Z,77.66
2019-01-22T01:24:40.077Z,77.85
2019-01-22T01:27:12.130Z,78.28
2019-01-22T01:29:43.442Z,77.99
2019-01-22T01:32:14.791Z,77.87
2019-01-22T01:34:46.180Z,78.05
2019-01-22T01:37:17.560Z,78.14
2019-01-22T01:39:49.126Z,78.77
2019-01-22T01:42:20.465Z,79.32
2019-01-22T01:44:51.808Z,79.35
2019-01-22T01:47:23.152Z,78.70
2019-01-22T01:49:54.464Z,78.68
2019-01-22T01:52:25.816Z,78.44
2019-01-22T01:54:57.199Z,78.89
2019-01-22T01:57:28.620Z,78.26
2019-01-22T01:59:59.975Z,77.90
2019-01-22T02:02:31.524Z,77.92
2019-01-22T02:05:02.831Z,76.57
2019-01-22T02:07:34.315Z,76.22
2019-01-22T02:10:12.812Z,77.26
2019-01-22T02:13:07.171Z,76.88
2019-01-22T02:16:04.544Z,76.87
2019-01-22T02:18:52.732Z,78.12
2019-01-22T02:21:34.507Z,78.39
2019-01-22T02:24:26.103Z,78.72
2019-01-22T02:27:02.192Z,79.14
2019-01-22T02:30:07.178Z,79.43
2019-01-22T02:33:22.168Z,79.90
2019-01-22T02:36:25.474Z,80.11
2019-01-22T02:39:48.504Z,79.42
2019-01-22T02:42:36.741Z,79.26
2019-01-22T02:45:24.229Z,79.56
2019-01-22T02:48:02.983Z,79.79
2019-01-22T02:51:00.039Z,80.29
2019-01-22T02:53:38.877Z,80.32
2019-01-22T02:56:38.232Z,80.44
2019-01-22T02:59:22.582Z,80.89
2019-01-22T03:02:01.355Z,81.16
2019-01-22T03:04:46.351Z,81.18
2019-01-22T03:07:31.291Z,80.72
2019-01-22T03:10:19.533Z,80.37
2019-01-22T03:13:13.192Z,79.54
2019-01-22T03:16:24.023Z,78.93
2019-01-22T03:19:08.973Z,79.51
2019-01-22T03:21:59.274Z,79.82
2019-01-22T03:24:49.915Z,79.86
2019-01-22T03:27:28.702Z,80.17
2019-01-22T03:30:30.351Z,80.47
2019-01-22T03:33:19.732Z,80.18
2019-01-22T03:36:01.826Z,80.05
2019-01-22T03:39:03.411Z,80.29
2019-01-22T03:42:14.204Z,80.16
2019-01-22T03:45:08.420Z,79.76
2019-01-22T03:48:05.502Z,79.76
2019-01-22T03:51:08.621Z,78.99
2019-01-22T03:54:08.023Z,80.52
2019-01-22T03:57:20.211Z,81.58
2019-01-22T03:59:51.662Z,81.51
2019-01-22T04:02:24.677Z,81.54
2019-01-22T04:04:56.064Z,81.64
2019-01-22T04:07:27.785Z,81.61
2019-01-22T04:10:00.719Z,81.70
2019-01-22T04:12:46.478Z,81.94
2019-01-22T04:15:22.980Z,82.01
2019-01-22T04:17:54.477Z,82.13
2019-01-22T04:20:25.971Z,82.19
2019-01-22T04:22:58.084Z,82.57
2019-01-22T04:25:42.723Z,82.55
2019-01-22T04:28:42.923Z,82.79
2019-01-22T04:31:21.690Z,83.02
2019-01-22T04:34:32.536Z,83.68
2019-01-22T04:37:30.930Z,84.47
2019-01-22T04:40:34.014Z,85.69
2019-01-22T04:43:35.773Z,86.58
2019-01-22T04:46:33.536Z,86.90
2019-01-22T04:49:15.365Z,87.36
2019-01-22T04:52:12.043Z,88.01
2019-01-22T04:55:11.688Z,88.25
2019-01-22T04:57:50.662Z,88.49
2019-01-22T05:00:47.784Z,88.68
2019-01-22T05:03:38.535Z,88.82
2019-01-22T05:06:23.557Z,88.99
2019-01-22T05:09:13.195Z,88.97
2019-01-22T05:12:09.907Z,89.07
2019-01-22T05:15:09.747Z,89.15
2019-01-22T05:17:54.455Z,89.13
2019-01-22T05:20:30.500Z,89.03
2019-01-22T05:23:09.165Z,88.75
2019-01-22T05:26:00.387Z,88.63
2019-01-22T05:28:57.499Z,88.34
2019-01-22T05:31:42.376Z,88.06
2019-01-22T05:34:41.784Z,87.91
2019-01-22T05:37:26.502Z,87.86
2019-01-22T05:40:20.426Z,87.86
2019-01-22T05:43:14.193Z,87.86
2019-01-22T05:45:59.242Z,87.61
2019-01-22T05:49:10.217Z,87.69
2019-01-22T05:51:57.910Z,87.85
2019-01-22T05:54:42.612Z,88.06
2019-01-22T05:57:16.268Z,88.56
2019-01-22T06:00:04.572Z,88.86
2019-01-22T06:02:40.682Z,89.08
2019-01-22T06:05:41.982Z,89.38
2019-01-22T06:08:26.778Z,89.64
2019-01-22T06:11:29.720Z,89.86
2019-01-22T06:14:31.447Z,89.97
2019-01-22T06:17:22.255Z,90.33
2019-01-22T06:20:19.019Z,90.45
2019-01-22T06:23:11.736Z,90.49
2019-01-22T06:25:59.600Z,90.58
2019-01-22T06:28:47.178Z,90.59
2019-01-22T06:31:37.875Z,90.54
2019-01-22T06:34:33.486Z,90.54
2019-01-22T06:37:12.270Z,90.47
2019-01-22T06:39:59.720Z,90.51
2019-01-22T06:42:41.072Z,90.44
2019-01-22T06:45:51.490Z,90.37
2019-01-22T06:48:48.638Z,90.37
2019-01-22T06:51:54.810Z,90.45
2019-01-22T06:55:04.258Z,90.57
2019-01-22T06:58:11.680Z,90.64
2019-01-22T07:00:53.383Z,90.64
2019-01-22T07:03:44.406Z,90.66
2019-01-22T07:06:39.796Z,90.54
2019-01-22T07:09:38.739Z,90.49
2019-01-22T07:12:32.159Z,90.38
2019-01-22T07:15:59.584Z,89.72
2019-01-22T07:18:44.420Z,88.42
2019-01-22T07:21:39.731Z,87.40
2019-01-22T07:24:37.955Z,86.91
2019-01-22T07:27:28.906Z,86.03
2019-01-22T07:30:42.990Z,86.16
2019-01-22T07:33:44.555Z,85.70
2019-01-22T07:36:41.832Z,85.60
2019-01-22T07:39:26.499Z,85.47
2019-01-22T07:42:11.170Z,85.41
2019-01-22T07:44:58.934Z,85.56
2019-01-22T07:47:34.928Z,85.41
2019-01-22T07:50:31.748Z,85.03
2019-01-22T07:53:13.869Z,84.67
2019-01-22T07:56:12.350Z,84.10
2019-01-22T07:58:48.462Z,84.55
2019-01-22T08:01:39.432Z,84.67
2019-01-22T08:04:49.188Z,84.88
2019-01-22T08:07:49.561Z,84.74
2019-01-22T08:10:42.941Z,84.34
2019-01-22T08:13:53.535Z,84.54
2019-01-22T08:16:49.972Z,84.33
2019-01-22T08:19:46.950Z,84.65
2019-01-22T08:22:58.652Z,84.67
2019-01-22T08:25:45.874Z,84.41
2019-01-22T08:28:30.961Z,84.20
2019-01-22T08:31:18.778Z,84.27
2019-01-22T08:34:12.670Z,83.73
2019-01-22T08:37:14.274Z,84.07
2019-01-22T08:40:02.344Z,83.77
2019-01-22T08:43:13.289Z,83.96
2019-01-22T08:45:58.059Z,83.72
2019-01-22T08:48:49.409Z,83.64
2019-01-22T08:51:45.044Z,83.64
2019-01-22T08:54:46.169Z,83.70
2019-01-22T08:57:24.576Z,83.96
2019-01-22T09:00:17.047Z,83.71
2019-01-22T09:03:27.654Z,83.22
2019-01-22T09:06:24.716Z,83.55
2019-01-22T09:09:30.127Z,83.58
2019-01-22T09:12:34.670Z,83.97
2019-01-22T09:15:37.455Z,84.12
2019-01-22T09:18:25.520Z,84.15
2019-01-22T09:21:10.412Z,84.13
2019-01-22T09:23:53.361Z,83.91
2019-01-22T09:26:44.119Z,84.52
2019-01-22T09:29:28.420Z,84.73
2019-01-22T09:32:10.439Z,84.66
2019-01-22T09:35:01.625Z,84.89
2019-01-22T09:37:34.601Z,84.75
2019-01-22T09:40:09.951Z,84.63
2019-01-22T09:42:41.303Z,84.61
2019-01-22T09:45:12.900Z,84.88
2019-01-22T09:47:44.361Z,84.75
2019-01-22T09:50:15.959Z,84.93
2019-01-22T09:52:48.500Z,85.02
2019-01-22T09:55:22.451Z,85.55
2019-01-22T09:57:53.064Z,85.78
2019-01-22T10:00:24.862Z,86.16
2019-01-22T10:02:56.376Z,86.24
2019-01-22T10:05:28.827Z,86.27
2019-01-22T10:08:00.311Z,86.22
2019-01-22T10:10:31.970Z,86.07
2019-01-22T10:13:03.472Z,85.94
2019-01-22T10:15:35.085Z,85.71
2019-01-22T10:18:06.789Z,85.17
2019-01-22T10:20:38.516Z,85.12
2019-01-22T10:23:10.986Z,85.08
2019-01-22T10:25:42.462Z,85.28
2019-01-22T10:28:13.834Z,85.40
2019-01-22T10:30:45.241Z,85.49
2019-01-22T10:33:16.614Z,85.41
2019-01-22T10:35:48.134Z,85.48
2019-01-22T10:38:19.515Z,84.97
2019-01-22T10:40:51.310Z,84.31
2019-01-22T10:43:22.672Z,84.82
2019-01-22T10:45:54.089Z,84.91
2019-01-22T10:48:25.532Z,84.50
2019-01-22T10:50:56.978Z,84.59
2019-01-22T10:57:02.938Z,84.49
2019-01-22T10:59:34.389Z,84.44
2019-01-22T11:02:06.056Z,84.40
2019-01-22T11:04:43.423Z,83.87
2019-01-22T11:07:16.260Z,83.75
2019-01-22T11:09:47.931Z,83.71
2019-01-22T11:12:24.287Z,84.27
2019-01-22T11:14:55.606Z,83.47
2019-01-22T11:17:26.903Z,83.54
2019-01-22T11:19:58.326Z,83.64
2019-01-22T11:22:29.944Z,83.81
2019-01-22T11:25:07.068Z,84.02
2019-01-22T11:27:38.431Z,83.72
2019-01-22T11:30:17.432Z,83.83
2019-01-22T11:32:50.326Z,83.89
2019-01-22T11:35:24.567Z,83.79
2019-01-22T11:37:55.971Z,83.63
2019-01-22T11:40:34.178Z,83.52
2019-01-22T11:43:05.729Z,82.88
2019-01-22T11:45:37.224Z,83.07
2019-01-22T11:48:10.757Z,82.75
2019-01-22T11:50:42.138Z,82.30
2019-01-22T11:53:13.511Z,82.33
2019-01-22T11:55:50.472Z,81.59
2019-01-22T11:58:20.169Z,81.93
2019-01-22T12:00:53.123Z,82.08
2019-01-22T12:03:26.116Z,81.74
2019-01-22T12:05:57.503Z,81.92
2019-01-22T12:08:29.478Z,82.43
2019-01-22T12:11:01.199Z,81.60
2019-01-22T12:13:32.752Z,82.25
2019-01-22T12:16:04.275Z,82.09
2019-01-22T12:18:36.433Z,82.34
2019-01-22T12:21:08.086Z,81.35
2019-01-22T12:23:39.708Z,81.14
2019-01-22T12:26:13.274Z,81.44
2019-01-22T12:28:47.419Z,80.85
2019-01-22T12:31:30.097Z,80.85
2019-01-22T12:34:12.430Z,81.32
2019-01-22T12:38:46.662Z,81.65
2019-01-22T12:58:20.790Z,80.26
2019-01-22T13:00:52.724Z,80.20
2019-01-22T13:03:27.050Z,80.65
2019-01-22T13:06:04.970Z,81.05
2019-01-22T13:08:38.658Z,80.90
2019-01-22T13:11:12.409Z,81.31
2019-01-22T13:13:56.626Z,81.44
2019-01-22T13:16:31.660Z,81.59
2019-01-22T13:19:04.493Z,81.88
2019-01-22T13:21:40.359Z,81.61
2019-01-22T13:24:12.257Z,82.01
2019-01-22T13:26:49.483Z,81.62
2019-01-22T13:29:21.939Z,81.40
2019-01-22T13:31:54.452Z,81.17
2019-01-22T13:34:28.527Z,81.42
2019-01-22T13:37:00.219Z,81.37
2019-01-22T13:39:32.349Z,81.32
2019-01-22T13:42:04.205Z,81.03
2019-01-22T13:44:38.298Z,81.14
2019-01-22T13:47:29.514Z,81.36
2019-01-22T13:50:02.036Z,80.88
2019-01-22T13:52:35.256Z,80.64
2019-01-22T13:55:11.606Z,80.69
2019-01-22T13:57:47.731Z,81.23
2019-01-22T14:00:26.910Z,81.50
2019-01-22T14:03:00.794Z,81.18
2019-01-22T14:05:32.426Z,81.13
2019-01-22T14:08:05.473Z,80.89
2019-01-22T14:10:38.464Z,81.04
2019-01-22T14:13:09.874Z,80.55
2019-01-22T14:15:42.305Z,81.04
2019-01-22T14:18:15.397Z,81.09
2019-01-22T14:20:46.987Z,80.91
2019-01-22T14:23:18.454Z,81.33
2019-01-22T14:25:50.046Z,81.18
2019-01-22T14:28:21.569Z,81.31
2019-01-22T14:30:53.162Z,81.51
2019-01-22T14:33:24.849Z,81.60
2019-01-22T14:35:56.497Z,81.59
2019-01-22T14:38:29.707Z,81.56
2019-01-22T14:41:03.958Z,81.53
2019-01-22T14:43:38.730Z,81.48
2019-01-22T14:46:10.405Z,81.89
2019-01-22T14:48:43.343Z,81.79
2019-01-22T14:51:15.246Z,81.75
2019-01-22T14:53:49.949Z,81.47
2019-01-22T14:56:21.535Z,81.56
2019-01-22T14:58:54.928Z,81.75
2019-01-22T15:01:27.827Z,81.52
2019-01-22T15:03:59.636Z,81.66
2019-01-22T15:06:33.363Z,81.76
2019-01-22T15:09:06.731Z,81.63
2019-01-22T15:11:38.255Z,82.10
2019-01-22T15:14:09.684Z,82.23
2019-01-22T15:16:41.011Z,82.13
2019-01-22T15:19:12.601Z,82.37
2019-01-22T15:21:43.940Z,82.27
2019-01-22T15:24:15.338Z,81.93
2019-01-22T15:26:46.670Z,82.04
2019-01-22T15:29:17.986Z,82.02
2019-01-22T15:31:49.282Z,81.66
2019-01-22T15:34:20.666Z,81.65
2019-01-22T15:36:53.296Z,81.07
2019-01-22T15:39:24.716Z,80.69
2019-01-22T15:41:56.015Z,80.80
2019-01-22T15:44:27.652Z,80.87
2019-01-22T15:46:59.168Z,80.75
2019-01-22T15:49:30.629Z,79.75
2019-01-22T15:52:01.899Z,79.35
2019-01-22T15:54:33.449Z,79.15
2019-01-22T15:57:04.797Z,79.04
2019-01-22T15:59:36.221Z,79.14
2019-01-22T16:02:07.912Z,78.91
2019-01-22T16:04:39.529Z,78.03
2019-01-22T16:07:11.191Z,77.78
2019-01-22T16:09:42.706Z,77.81
2019-01-22T16:12:14.064Z,77.98
2019-01-22T16:14:45.579Z,78.28
2019-01-22T16:17:18.663Z,78.02
2019-01-22T16:19:50.069Z,77.81
2019-01-22T16:22:21.487Z,77.39
2019-01-22T16:24:53.313Z,77.24
2019-01-22T16:27:27.940Z,77.70
2019-01-22T16:29:59.652Z,77.06
2019-01-22T16:32:31.120Z,76.88
2019-01-22T16:35:02.920Z,76.69
2019-01-22T16:37:34.583Z,76.68
2019-01-22T16:40:13.463Z,76.38
2019-01-22T16:42:46.150Z,76.48
2019-01-22T16:45:27.750Z,76.69
2019-01-22T16:47:59.537Z,76.76
2019-01-22T16:50:33.751Z,77.53
2019-01-22T16:53:07.596Z,79.19
2019-01-22T16:55:41.197Z,79.86
2019-01-22T16:58:12.954Z,79.90
2019-01-22T17:00:44.637Z,79.57
2019-01-22T17:03:16.301Z,76.78
2019-01-22T17:05:56.287Z,76.85
2019-01-22T17:08:27.577Z,77.07
2019-01-22T17:10:58.848Z,76.62
2019-01-22T17:13:32.477Z,76.54
2019-01-22T17:20:25.963Z,76.25
2019-01-22T17:23:01.925Z,77.46
2019-01-22T17:25:31.118Z,77.73
2019-01-22T17:28:02.630Z,77.93
2019-01-22T17:30:34.125Z,77.79
2019-01-22T17:33:12.584Z,76.83
2019-01-22T17:35:43.743Z,76.38
2019-01-22T17:38:15.606Z,74.78
2019-01-22T17:40:49.884Z,74.30
2019-01-22T17:43:21.487Z,74.01
2019-01-22T17:45:53.253Z,74.23
2019-01-22T17:48:24.799Z,74.23
2019-01-22T17:50:56.321Z,74.77
2019-01-22T17:53:27.761Z,75.09
2019-01-22T17:56:01.545Z,75.53
2019-01-22T17:58:38.940Z,75.96
2019-01-22T18:01:14.761Z,76.24
2019-01-22T18:03:50.910Z,76.17
2019-01-22T18:06:22.624Z,76.41
2019-01-22T18:08:54.182Z,76.47
2019-01-22T18:11:29.894Z,76.68
2019-01-22T18:14:03.272Z,76.28
2019-01-22T18:16:35.174Z,76.51
2019-01-22T18:19:06.884Z,76.84
2019-01-22T18:21:42.393Z,76.91
2019-01-22T18:24:15.594Z,77.63
2019-01-22T18:26:47.082Z,77.70
2019-01-22T18:29:18.822Z,76.78
2019-01-22T18:31:51.977Z,77.09
2019-01-22T18:34:23.435Z,77.17
2019-01-22T18:36:54.948Z,77.58
2019-01-22T18:39:26.716Z,77.96
2019-01-22T18:41:58.213Z,77.80
2019-01-22T18:44:35.584Z,77.46
2019-01-22T18:47:14.549Z,77.39
2019-01-22T18:49:47.667Z,77.45
2019-01-22T18:52:19.446Z,77.38
2019-01-22T18:54:55.398Z,77.70
2019-01-22T18:57:27.575Z,77.63
2019-01-22T18:59:59.154Z,77.37
2019-01-22T19:02:32.296Z,77.24
2019-01-22T19:05:04.546Z,77.29
2019-01-22T19:07:36.683Z,77.06
2019-01-22T19:10:21.146Z,77.05
2019-01-22T19:12:54.145Z,77.36
2019-01-22T19:15:28.605Z,77.17
2019-01-22T19:18:04.517Z,77.21
2019-01-22T19:20:39.202Z,76.76
2019-01-22T19:23:10.916Z,76.18
2019-01-22T19:25:44.546Z,76.41
2019-01-22T19:28:17.446Z,76.93
2019-01-22T19:30:49.918Z,76.65
2019-01-22T19:33:23.148Z,76.95
2019-01-22T19:35:54.860Z,77.01
2019-01-22T19:38:26.227Z,76.88
2019-01-22T19:40:57.770Z,76.84
2019-01-22T19:43:33.586Z,76.75
2019-01-22T19:46:05.542Z,76.43
2019-01-22T19:48:38.620Z,76.80
2019-01-22T19:51:10.281Z,78.31
2019-01-22T19:53:42.014Z,77.16
2019-01-22T19:56:16.485Z,76.71
2019-01-22T19:58:47.994Z,76.59
2019-01-22T20:01:21.737Z,77.47
2019-01-22T20:03:53.320Z,77.79
2019-01-22T20:06:24.873Z,78.09
2019-01-22T20:08:56.185Z,78.18
2019-01-22T20:11:27.654Z,78.33
2019-01-22T20:13:59.027Z,78.56
2019-01-22T20:16:30.504Z,78.25
2019-01-22T20:19:02.820Z,77.91
2019-01-22T20:21:34.169Z,78.27
2019-01-22T20:24:08.126Z,78.25
2019-01-22T20:26:41.045Z,78.31
2019-01-22T20:29:12.380Z,78.62
2019-01-22T20:31:43.745Z,78.67
2019-01-22T20:34:14.992Z,78.83
2019-01-22T20:36:46.354Z,78.74
2019-01-22T20:39:30.562Z,78.60
2019-01-22T20:42:02.084Z,78.73
2019-01-22T20:44:33.393Z,78.64
2019-01-22T20:47:04.828Z,78.61
2019-01-22T20:49:36.185Z,78.71
2019-01-22T20:52:07.710Z,78.81
2019-01-22T20:54:39.092Z,78.94
2019-01-22T20:57:10.639Z,78.63
2019-01-22T20:59:41.931Z,78.55
2019-01-22T21:02:13.373Z,77.81
2019-01-22T21:04:44.988Z,77.45
2019-01-22T21:07:16.378Z,77.26
2019-01-22T21:09:49.225Z,77.02
2019-01-22T21:12:20.705Z,77.14
2019-01-22T21:14:53.174Z,78.38
2019-01-22T21:17:24.709Z,78.53
2019-01-22T21:20:01.924Z,78.42
2019-01-22T21:22:30.817Z,77.42
2019-01-22T21:25:02.056Z,76.80
2019-01-22T21:27:33.768Z,77.17
2019-01-22T21:30:09.581Z,77.47
2019-01-22T21:32:42.358Z,77.68
2019-01-22T21:35:13.747Z,77.85
2019-01-22T21:37:45.124Z,77.88
2019-01-22T21:40:17.690Z,77.62
2019-01-22T21:42:51.832Z,77.42
2019-01-22T21:45:28.922Z,76.31
2019-01-22T21:48:01.255Z,75.78
2019-01-22T21:50:32.767Z,75.57
2019-01-22T21:53:04.541Z,75.65
2019-01-22T21:55:35.889Z,75.35
2019-01-22T21:58:08.611Z,75.36
2019-01-22T22:00:40.265Z,75.10
2019-01-22T22:03:11.779Z,75.24
2019-01-22T22:05:43.088Z,75.19
2019-01-22T22:08:14.459Z,75.35
2019-01-22T22:10:45.900Z,75.17
2019-01-22T22:13:17.417Z,75.00
2019-01-22T22:15:51.517Z,75.00
2019-01-22T22:18:22.883Z,75.24
2019-01-22T22:20:54.210Z,75.31
2019-01-22T22:23:25.571Z,75.27
2019-01-22T22:25:56.852Z,75.27
2019-01-22T22:28:28.213Z,75.37
2019-01-22T22:30:59.575Z,75.47
2019-01-22T22:33:30.897Z,75.43
2019-01-22T22:36:02.160Z,75.46
2019-01-22T22:38:33.495Z,75.38
2019-01-22T22:41:05.016Z,75.16
2019-01-22T22:43:36.461Z,74.94
2019-01-22T22:46:07.972Z,74.91
2019-01-22T22:48:39.369Z,75.46
2019-01-22T22:51:10.712Z,75.43
2019-01-22T22:53:42.164Z,74.91
2019-01-22T22:56:13.512Z,75.40
2019-01-22T22:58:44.854Z,75.92
2019-01-22T23:01:24.011Z,75.64
2019-01-22T23:03:56.579Z,76.28
2019-01-22T23:06:28.043Z,76.44
2019-01-22T23:08:59.511Z,76.06
2019-01-22T23:11:30.868Z,75.94
2019-01-22T23:14:02.301Z,75.54
2019-01-22T23:16:33.768Z,75.17
2019-01-22T23:19:05.314Z,75.49
2019-01-22T23:21:37.732Z,75.48
2019-01-22T23:24:09.270Z,75.46
2019-01-22T23:26:40.689Z,76.00
2019-01-22T23:29:12.228Z,76.57
2019-01-22T23:31:43.624Z,77.15
2019-01-22T23:34:15.125Z,77.18
2019-01-22T23:36:46.548Z,76.86
2019-01-22T23:39:17.861Z,76.68
2019-01-22T23:41:49.299Z,76.51
2019-01-22T23:44:20.799Z,76.54
2019-01-22T23:46:52.259Z,76.27
2019-01-22T23:49:23.662Z,76.74
2019-01-22T23:51:55.026Z,77.19
2019-01-22T23:54:26.462Z,76.28
2019-01-22T23:56:58.374Z,76.11
2019-01-22T23:59:29.890Z,76.29
